createdAt,value
2017-01-22T00:00:02.619Z,-2.45
2017-01-22T00:01:11.303Z,-2.34
2017-01-22T00:02:19.987Z,-2.45
2017-01-22T00:03:28.673Z,-2.44
2017-01-22T00:04:37.359Z,-2.33
2017-01-22T00:05:46.051Z,-2.32
2017-01-22T00:06:54.738Z,-2.33
2017-01-22T00:08:03.430Z,-2.4
2017-01-22T00:09:12.113Z,-2.36
2017-01-22T00:10:20.797Z,-2.37
2017-01-22T00:11:29.481Z,-2.4
2017-01-22T00:12:38.165Z,-2.48
2017-01-22T00:13:46.856Z,-2.4
2017-01-22T00:14:55.542Z,-2.36
2017-01-22T00:16:04.237Z,-2.29
2017-01-22T00:17:12.918Z,-2.32
2017-01-22T00:18:21.608Z,-2.47
2017-01-22T00:19:30.293Z,-2.37
2017-01-22T00:20:38.982Z,-2.39
2017-01-22T00:21:47.666Z,-2.33
2017-01-22T00:22:56.410Z,-2.32
2017-01-22T00:24:05.097Z,-2.34
2017-01-22T00:25:13.782Z,-2.29
2017-01-22T00:26:22.463Z,-2.39
2017-01-22T00:27:31.154Z,-2.36
2017-01-22T00:28:39.840Z,-2.33
2017-01-22T00:29:48.522Z,-2.33
2017-01-22T00:30:57.205Z,-2.34
2017-01-22T00:32:05.895Z,-2.32
2017-01-22T00:33:14.585Z,-2.22
2017-01-22T00:34:23.269Z,-2.29
2017-01-22T00:35:31.959Z,-2.34
2017-01-22T00:36:40.668Z,-2.29
2017-01-22T00:37:49.352Z,-2.33
2017-01-22T00:38:58.035Z,-2.32
2017-01-22T00:40:07.124Z,-2.2
2017-01-22T00:41:15.807Z,-2.26
2017-01-22T00:42:24.529Z,-2.17
2017-01-22T00:43:33.218Z,-2.26
2017-01-22T00:44:41.903Z,-2.17
2017-01-22T00:45:50.592Z,-2.2
2017-01-22T00:46:59.278Z,-2.25
2017-01-22T00:48:07.960Z,-2.23
2017-01-22T00:49:16.642Z,-2.15
2017-01-22T00:50:25.324Z,-2.22
2017-01-22T00:51:34.013Z,-2.18
2017-01-22T00:52:42.702Z,-2.2
2017-01-22T00:53:51.386Z,-2.17
2017-01-22T00:55:00.081Z,-2.26
2017-01-22T00:56:09.161Z,-2.17
2017-01-22T00:57:17.852Z,-2.18
2017-01-22T00:58:26.534Z,-2.2
2017-01-22T00:59:35.221Z,-2.2
2017-01-22T01:00:43.908Z,-2.18
2017-01-22T01:01:52.597Z,-2.2
2017-01-22T01:03:01.284Z,-2.2
2017-01-22T01:04:09.969Z,-2.17
2017-01-22T01:05:18.655Z,-2.17
2017-01-22T01:06:27.343Z,-2.14
2017-01-22T01:07:36.027Z,-2.2
2017-01-22T01:08:44.714Z,-2.23
2017-01-22T01:09:53.404Z,-2.25
2017-01-22T01:11:02.086Z,-2.14
2017-01-22T01:12:10.772Z,-2.18
2017-01-22T01:13:19.455Z,-2.2
2017-01-22T01:14:28.137Z,-2.13
2017-01-22T01:15:36.826Z,-2.2
2017-01-22T01:16:45.513Z,-2.15
2017-01-22T01:17:54.198Z,-2.17
2017-01-22T01:19:02.879Z,-2.17
2017-01-22T01:20:11.558Z,-2.2
2017-01-22T01:21:20.245Z,-2.26
2017-01-22T01:22:28.924Z,-2.29
2017-01-22T01:23:37.609Z,-2.33
2017-01-22T01:24:46.290Z,-2.36
2017-01-22T01:25:54.975Z,-2.34
2017-01-22T01:27:03.662Z,-2.34
2017-01-22T01:28:12.348Z,-2.4
2017-01-22T01:29:21.035Z,-2.4
2017-01-22T01:30:29.722Z,-2.36
2017-01-22T01:31:38.405Z,-2.47
2017-01-22T01:32:47.094Z,-2.51
2017-01-22T01:33:55.780Z,-2.61
2017-01-22T01:35:04.472Z,-2.68
2017-01-22T01:36:13.154Z,-2.73
2017-01-22T01:37:21.839Z,-2.8
2017-01-22T01:38:30.921Z,-2.86
2017-01-22T01:39:39.602Z,-2.89
2017-01-22T01:40:48.285Z,-2.78
2017-01-22T01:41:56.969Z,-2.91
2017-01-22T01:43:05.656Z,-2.86
2017-01-22T01:44:14.340Z,-2.87
2017-01-22T01:45:23.028Z,-2.91
2017-01-22T01:46:31.712Z,-3.02
2017-01-22T01:47:40.406Z,-2.98
2017-01-22T01:48:49.099Z,-3.01
2017-01-22T01:49:57.781Z,-2.99
2017-01-22T01:51:06.463Z,-3.01
2017-01-22T01:52:15.150Z,-3.01
2017-01-22T01:53:23.832Z,-2.94
2017-01-22T01:54:32.513Z,-3.02
2017-01-22T01:55:41.196Z,-2.98
2017-01-22T01:56:49.885Z,-2.98
2017-01-22T01:57:58.570Z,-2.99
2017-01-22T01:59:07.260Z,-2.93
2017-01-22T02:00:15.942Z,-2.86
2017-01-22T02:01:24.656Z,-2.83
2017-01-22T02:02:33.338Z,-2.83
2017-01-22T02:03:42.023Z,-2.9
2017-01-22T02:04:50.706Z,-2.76
2017-01-22T02:05:59.388Z,-2.78
2017-01-22T02:07:08.078Z,-2.83
2017-01-22T02:08:16.761Z,-2.8
2017-01-22T02:09:25.439Z,-2.78
2017-01-22T02:10:34.123Z,-2.69
2017-01-22T02:11:42.828Z,-2.63
2017-01-22T02:12:51.507Z,-2.68
2017-01-22T02:14:00.194Z,-2.72
2017-01-22T02:15:08.879Z,-2.69
2017-01-22T02:16:17.560Z,-2.63
2017-01-22T02:17:26.244Z,-2.66
2017-01-22T02:18:34.935Z,-2.66
2017-01-22T02:19:43.641Z,-2.62
2017-01-22T02:20:52.325Z,-2.62
2017-01-22T02:22:01.007Z,-2.57
2017-01-22T02:23:09.700Z,-2.52
2017-01-22T02:24:18.410Z,-2.51
2017-01-22T02:25:27.093Z,-2.44
2017-01-22T02:26:35.782Z,-2.5
2017-01-22T02:27:44.468Z,-2.39
2017-01-22T02:28:53.149Z,-2.37
2017-01-22T02:30:01.829Z,-2.42
2017-01-22T02:31:10.915Z,-2.4
2017-01-22T02:32:19.599Z,-2.4
2017-01-22T02:33:28.282Z,-2.42
2017-01-22T02:34:36.978Z,-2.45
2017-01-22T02:35:45.667Z,-2.51
2017-01-22T02:36:54.359Z,-2.52
2017-01-22T02:38:03.044Z,-2.48
2017-01-22T02:39:11.730Z,-2.57
2017-01-22T02:40:20.426Z,-2.42
2017-01-22T02:41:29.112Z,-2.37
2017-01-22T02:42:37.797Z,-2.47
2017-01-22T02:43:46.481Z,-2.39
2017-01-22T02:44:55.162Z,-2.48
2017-01-22T02:46:03.851Z,-2.51
2017-01-22T02:47:12.544Z,-2.47
2017-01-22T02:48:21.234Z,-2.5
2017-01-22T02:49:29.920Z,-2.55
2017-01-22T02:50:38.603Z,-2.55
2017-01-22T02:51:47.288Z,-2.55
2017-01-22T02:52:55.972Z,-2.45
2017-01-22T02:54:04.662Z,-2.45
2017-01-22T02:55:13.350Z,-2.32
2017-01-22T02:56:22.434Z,-2.37
2017-01-22T02:57:31.118Z,-2.36
2017-01-22T02:58:39.800Z,-2.32
2017-01-22T02:59:48.487Z,-2.33
2017-01-22T03:00:57.175Z,-2.32
2017-01-22T03:02:05.866Z,-2.33
2017-01-22T03:03:16.923Z,-2.36
2017-01-22T03:04:25.606Z,-2.29
2017-01-22T03:05:34.300Z,-2.33
2017-01-22T03:06:42.986Z,-2.33
2017-01-22T03:07:51.699Z,-2.34
2017-01-22T03:09:00.731Z,-2.44
2017-01-22T03:10:09.416Z,-2.44
2017-01-22T03:11:18.108Z,-2.39
2017-01-22T03:12:26.797Z,-2.36
2017-01-22T03:13:35.483Z,-2.39
2017-01-22T03:14:44.166Z,-2.4
2017-01-22T03:15:52.856Z,-2.42
2017-01-22T03:17:01.543Z,-2.42
2017-01-22T03:18:10.232Z,-2.37
2017-01-22T03:19:18.915Z,-2.45
2017-01-22T03:20:27.651Z,-2.52
2017-01-22T03:21:36.340Z,-2.51
2017-01-22T03:22:45.028Z,-2.55
2017-01-22T03:23:53.712Z,-2.52
2017-01-22T03:25:02.428Z,-2.52
2017-01-22T03:26:11.113Z,-2.54
2017-01-22T03:27:19.795Z,-2.54
2017-01-22T03:28:28.481Z,-2.51
2017-01-22T03:29:37.164Z,-2.61
2017-01-22T03:30:45.851Z,-2.5
2017-01-22T03:31:54.531Z,-2.51
2017-01-22T03:33:03.216Z,-2.42
2017-01-22T03:34:11.907Z,-2.4
2017-01-22T03:35:20.588Z,-2.4
2017-01-22T03:36:29.271Z,-2.44
2017-01-22T03:37:37.957Z,-2.5
2017-01-22T03:38:46.645Z,-2.45
2017-01-22T03:39:55.365Z,-2.45
2017-01-22T03:41:04.055Z,-2.42
2017-01-22T03:42:12.739Z,-2.39
2017-01-22T03:43:21.429Z,-2.45
2017-01-22T03:44:30.143Z,-2.55
2017-01-22T03:45:38.827Z,-2.5
2017-01-22T03:46:47.520Z,-2.52
2017-01-22T03:47:56.202Z,-2.57
2017-01-22T03:49:04.886Z,-2.54
2017-01-22T03:50:13.571Z,-2.57
2017-01-22T03:51:22.250Z,-2.62
2017-01-22T03:52:30.931Z,-2.51
2017-01-22T03:53:39.617Z,-2.57
2017-01-22T03:54:48.300Z,-2.54
2017-01-22T03:55:56.984Z,-2.61
2017-01-22T03:57:05.665Z,-2.58
2017-01-22T03:58:14.348Z,-2.66
2017-01-22T03:59:23.033Z,-2.63
2017-01-22T04:00:31.720Z,-2.68
2017-01-22T04:01:40.404Z,-2.68
2017-01-22T04:02:49.095Z,-2.68
2017-01-22T04:03:57.778Z,-2.68
2017-01-22T04:05:06.469Z,-2.75
2017-01-22T04:06:15.152Z,-2.78
2017-01-22T04:07:23.837Z,-2.76
2017-01-22T04:08:32.520Z,-2.84
2017-01-22T04:09:41.202Z,-2.91
2017-01-22T04:10:50.285Z,-2.86
2017-01-22T04:11:58.972Z,-2.83
2017-01-22T04:13:07.659Z,-2.84
2017-01-22T04:14:16.341Z,-2.78
2017-01-22T04:15:25.026Z,-2.75
2017-01-22T04:16:33.710Z,-2.73
2017-01-22T04:17:42.397Z,-2.69
2017-01-22T04:18:51.084Z,-2.68
2017-01-22T04:19:59.765Z,-2.72
2017-01-22T04:21:08.458Z,-2.65
2017-01-22T04:22:17.140Z,-2.65
2017-01-22T04:23:25.823Z,-2.7
2017-01-22T04:24:34.507Z,-2.69
2017-01-22T04:25:43.222Z,-2.65
2017-01-22T04:26:51.906Z,-2.65
2017-01-22T04:28:00.594Z,-2.7
2017-01-22T04:29:09.284Z,-2.68
2017-01-22T04:30:17.969Z,-2.65
2017-01-22T04:31:26.653Z,-2.58
2017-01-22T04:32:35.395Z,-2.57
2017-01-22T04:33:44.075Z,-2.51
2017-01-22T04:34:52.761Z,-2.57
2017-01-22T04:36:01.441Z,-2.57
2017-01-22T04:37:10.127Z,-2.62
2017-01-22T04:38:18.811Z,-2.65
2017-01-22T04:39:27.527Z,-2.52
2017-01-22T04:40:37.311Z,-2.55
2017-01-22T04:41:45.997Z,-2.54
2017-01-22T04:42:54.682Z,-2.58
2017-01-22T04:44:03.391Z,-2.51
2017-01-22T04:45:12.077Z,-2.57
2017-01-22T04:46:20.817Z,-2.65
2017-01-22T04:47:29.500Z,-2.69
2017-01-22T04:48:38.192Z,-2.65
2017-01-22T04:49:46.882Z,-2.7
2017-01-22T04:50:55.567Z,-2.7
2017-01-22T04:52:04.324Z,-2.65
2017-01-22T04:53:13.007Z,-2.72
2017-01-22T04:54:21.691Z,-2.68
2017-01-22T04:55:30.380Z,-2.8
2017-01-22T04:56:39.064Z,-2.7
2017-01-22T04:57:47.851Z,-2.8
2017-01-22T04:58:56.531Z,-2.8
2017-01-22T05:00:05.219Z,-2.8
2017-01-22T05:01:13.904Z,-2.75
2017-01-22T05:02:22.612Z,-2.76
2017-01-22T05:03:31.342Z,-2.75
2017-01-22T05:04:40.033Z,-2.8
2017-01-22T05:05:48.720Z,-2.81
2017-01-22T05:06:57.410Z,-2.83
2017-01-22T05:08:06.124Z,-2.84
2017-01-22T05:09:14.859Z,-2.78
2017-01-22T05:10:23.544Z,-2.9
2017-01-22T05:11:32.227Z,-2.84
2017-01-22T05:12:40.919Z,-2.9
2017-01-22T05:13:49.598Z,-2.93
2017-01-22T05:14:58.343Z,-2.93
2017-01-22T05:16:07.024Z,-2.9
2017-01-22T05:17:15.717Z,-2.86
2017-01-22T05:18:24.405Z,-2.84
2017-01-22T05:19:33.089Z,-2.83
2017-01-22T05:20:41.819Z,-2.93
2017-01-22T05:21:50.504Z,-2.84
2017-01-22T05:22:59.181Z,-2.89
2017-01-22T05:24:07.867Z,-2.83
2017-01-22T05:25:16.554Z,-2.76
2017-01-22T05:26:25.290Z,-2.84
2017-01-22T05:27:33.977Z,-2.78
2017-01-22T05:28:42.663Z,-2.84
2017-01-22T05:29:51.345Z,-2.9
2017-01-22T05:31:00.028Z,-2.91
2017-01-22T05:32:08.761Z,-2.87
2017-01-22T05:33:17.447Z,-2.93
2017-01-22T05:34:26.133Z,-2.86
2017-01-22T05:35:34.823Z,-2.83
2017-01-22T05:36:43.526Z,-2.78
2017-01-22T05:37:52.261Z,-2.8
2017-01-22T05:39:00.949Z,-2.68
2017-01-22T05:40:09.634Z,-2.72
2017-01-22T05:41:18.321Z,-2.66
2017-01-22T05:42:27.002Z,-2.57
2017-01-22T05:43:35.789Z,-2.62
2017-01-22T05:44:44.478Z,-2.55
2017-01-22T05:45:53.186Z,-2.61
2017-01-22T05:47:01.867Z,-2.51
2017-01-22T05:48:10.550Z,-2.48
2017-01-22T05:49:19.282Z,-2.48
2017-01-22T05:50:28.363Z,-2.5
2017-01-22T05:51:37.052Z,-2.5
2017-01-22T05:52:45.736Z,-2.5
2017-01-22T05:53:54.428Z,-2.54
2017-01-22T05:55:03.162Z,-2.51
2017-01-22T05:56:12.246Z,-2.58
2017-01-22T05:57:20.933Z,-2.52
2017-01-22T05:58:29.620Z,-2.55
2017-01-22T05:59:38.310Z,-2.58
2017-01-22T06:00:47.051Z,-2.58
2017-01-22T06:01:55.741Z,-2.68
2017-01-22T06:03:04.430Z,-2.72
2017-01-22T06:04:13.144Z,-2.89
2017-01-22T06:05:21.828Z,-2.91
2017-01-22T06:06:30.572Z,-2.98
2017-01-22T06:07:39.259Z,-3.14
2017-01-22T06:08:47.945Z,-3.07
2017-01-22T06:09:56.634Z,-3.05
2017-01-22T06:11:05.319Z,-3.14
2017-01-22T06:12:17.843Z,-3.12
2017-01-22T06:13:26.528Z,-3.09
2017-01-22T06:14:35.214Z,-3.11
2017-01-22T06:15:43.898Z,-3.12
2017-01-22T06:16:52.581Z,-3.19
2017-01-22T06:18:01.615Z,-3.19
2017-01-22T06:19:10.308Z,-3.12
2017-01-22T06:20:18.994Z,-3.12
2017-01-22T06:21:27.683Z,-3.17
2017-01-22T06:22:36.367Z,-3.12
2017-01-22T06:23:46.741Z,-3.04
2017-01-22T06:24:55.430Z,-3.08
2017-01-22T06:26:04.144Z,-3.05
2017-01-22T06:27:12.830Z,-3.08
2017-01-22T06:28:21.509Z,-3.04
2017-01-22T06:29:30.231Z,-3.04
2017-01-22T06:30:38.916Z,-3.05
2017-01-22T06:31:47.601Z,-3.09
2017-01-22T06:32:56.286Z,-3.12
2017-01-22T06:34:04.970Z,-3.09
2017-01-22T06:35:13.658Z,-3.08
2017-01-22T06:36:22.344Z,-3.11
2017-01-22T06:37:31.031Z,-3.14
2017-01-22T06:38:39.719Z,-3.12
2017-01-22T06:39:48.435Z,-3.09
2017-01-22T06:40:57.128Z,-3.02
2017-01-22T06:42:05.812Z,-3.01
2017-01-22T06:43:14.494Z,-3.02
2017-01-22T06:44:23.182Z,-2.99
2017-01-22T06:45:31.873Z,-3.01
2017-01-22T06:46:40.581Z,-2.93
2017-01-22T06:47:49.268Z,-2.98
2017-01-22T06:48:57.950Z,-2.96
2017-01-22T06:50:06.640Z,-2.96
2017-01-22T06:51:15.324Z,-2.89
2017-01-22T06:52:24.019Z,-2.91
2017-01-22T06:53:32.702Z,-2.9
2017-01-22T06:54:41.391Z,-2.91
2017-01-22T06:55:50.076Z,-2.86
2017-01-22T06:56:58.759Z,-2.8
2017-01-22T06:58:07.453Z,-2.7
2017-01-22T06:59:16.143Z,-2.72
2017-01-22T07:00:25.224Z,-2.65
2017-01-22T07:01:33.913Z,-2.69
2017-01-22T07:02:42.599Z,-2.66
2017-01-22T07:03:51.280Z,-2.62
2017-01-22T07:04:59.966Z,-2.65
2017-01-22T07:06:08.651Z,-2.84
2017-01-22T07:07:17.337Z,-2.9
2017-01-22T07:08:26.020Z,-2.96
2017-01-22T07:09:34.704Z,-2.89
2017-01-22T07:10:43.388Z,-3.02
2017-01-22T07:11:52.073Z,-2.96
2017-01-22T07:13:00.761Z,-2.94
2017-01-22T07:14:09.452Z,-2.87
2017-01-22T07:15:18.137Z,-2.86
2017-01-22T07:16:26.839Z,-2.9
2017-01-22T07:17:35.524Z,-2.89
2017-01-22T07:18:44.211Z,-2.94
2017-01-22T07:19:52.894Z,-2.8
2017-01-22T07:21:01.577Z,-2.84
2017-01-22T07:22:10.262Z,-2.7
2017-01-22T07:23:18.946Z,-2.8
2017-01-22T07:24:27.653Z,-2.75
2017-01-22T07:25:36.337Z,-2.76
2017-01-22T07:26:45.025Z,-2.73
2017-01-22T07:27:53.712Z,-2.72
2017-01-22T07:29:02.396Z,-2.78
2017-01-22T07:30:11.075Z,-2.86
2017-01-22T07:31:19.768Z,-2.86
2017-01-22T07:32:28.464Z,-2.89
2017-01-22T07:33:37.151Z,-2.86
2017-01-22T07:34:45.843Z,-2.9
2017-01-22T07:35:54.550Z,-3.02
2017-01-22T07:37:03.255Z,-3.08
2017-01-22T07:38:11.941Z,-3.04
2017-01-22T07:39:21.027Z,-3.05
2017-01-22T07:40:29.711Z,-3.08
2017-01-22T07:41:38.398Z,-3.05
2017-01-22T07:42:47.082Z,-3.08
2017-01-22T07:43:55.784Z,-3.02
2017-01-22T07:45:04.476Z,-2.99
2017-01-22T07:46:13.156Z,-3.01
2017-01-22T07:47:21.839Z,-2.99
2017-01-22T07:48:30.523Z,-2.94
2017-01-22T07:49:39.209Z,-2.99
2017-01-22T07:50:47.894Z,-2.87
2017-01-22T07:51:56.580Z,-2.89
2017-01-22T07:53:05.268Z,-2.9
2017-01-22T07:54:13.952Z,-2.87
2017-01-22T07:55:22.636Z,-2.89
2017-01-22T07:56:31.389Z,-2.9
2017-01-22T07:57:40.075Z,-2.91
2017-01-22T07:58:48.764Z,-2.87
2017-01-22T07:59:57.452Z,-2.86
2017-01-22T08:01:06.137Z,-2.84
2017-01-22T08:02:14.825Z,-2.86
2017-01-22T08:03:23.505Z,-2.91
2017-01-22T08:04:32.216Z,-2.98
2017-01-22T08:05:40.907Z,-3.05
2017-01-22T08:06:49.621Z,-3.09
2017-01-22T08:07:58.312Z,-2.98
2017-01-22T08:09:07.006Z,-3.02
2017-01-22T08:10:15.691Z,-3.02
2017-01-22T08:11:24.376Z,-2.98
2017-01-22T08:12:36.063Z,-2.96
2017-01-22T08:13:44.751Z,-3.01
2017-01-22T08:14:53.433Z,-2.94
2017-01-22T08:16:02.118Z,-2.94
2017-01-22T08:17:10.803Z,-2.94
2017-01-22T08:18:19.837Z,-2.98
2017-01-22T08:19:28.525Z,-2.91
2017-01-22T08:20:37.210Z,-2.91
2017-01-22T08:21:45.900Z,-2.96
2017-01-22T08:22:54.584Z,-2.91
2017-01-22T08:24:05.626Z,-2.9
2017-01-22T08:25:14.315Z,-2.9
2017-01-22T08:26:22.998Z,-2.84
2017-01-22T08:27:31.680Z,-2.87
2017-01-22T08:28:40.361Z,-2.87
2017-01-22T08:29:49.400Z,-2.86
2017-01-22T08:30:58.094Z,-2.87
2017-01-22T08:32:06.780Z,-2.9
2017-01-22T08:33:15.493Z,-2.87
2017-01-22T08:34:24.178Z,-2.86
2017-01-22T08:35:33.217Z,-2.91
2017-01-22T08:36:41.901Z,-2.93
2017-01-22T08:37:50.585Z,-2.99
2017-01-22T08:38:59.675Z,-3.01
2017-01-22T08:40:08.363Z,-2.99
2017-01-22T08:41:17.421Z,-2.93
2017-01-22T08:42:26.106Z,-2.98
2017-01-22T08:43:34.801Z,-2.81
2017-01-22T08:44:43.488Z,-2.76
2017-01-22T08:45:52.181Z,-2.76
2017-01-22T08:47:00.922Z,-2.7
2017-01-22T08:48:09.608Z,-2.69
2017-01-22T08:49:18.292Z,-2.55
2017-01-22T08:50:26.977Z,-2.55
2017-01-22T08:51:35.661Z,-2.45
2017-01-22T08:52:44.391Z,-2.51
2017-01-22T08:53:53.078Z,-2.45
2017-01-22T08:55:01.765Z,-2.42
2017-01-22T08:56:10.453Z,-2.36
2017-01-22T08:57:19.133Z,-2.42
2017-01-22T08:58:27.865Z,-2.42
2017-01-22T08:59:36.950Z,-2.37
2017-01-22T09:00:45.642Z,-2.34
2017-01-22T09:01:54.327Z,-2.37
2017-01-22T09:03:03.013Z,-2.5
2017-01-22T09:04:11.750Z,-2.4
2017-01-22T09:05:20.437Z,-2.48
2017-01-22T09:06:29.123Z,-2.42
2017-01-22T09:07:37.816Z,-2.44
2017-01-22T09:08:46.541Z,-2.44
2017-01-22T09:09:55.275Z,-2.42
2017-01-22T09:11:03.966Z,-2.57
2017-01-22T09:12:12.651Z,-2.45
2017-01-22T09:13:21.337Z,-2.51
2017-01-22T09:14:30.020Z,-2.62
2017-01-22T09:15:39.556Z,-2.69
2017-01-22T09:16:48.242Z,-2.76
2017-01-22T09:17:56.921Z,-2.76
2017-01-22T09:19:05.610Z,-2.86
2017-01-22T09:20:14.294Z,-2.86
2017-01-22T09:22:51.093Z,-2.89
2017-01-22T09:23:59.782Z,-2.89
2017-01-22T09:25:08.870Z,-2.81
2017-01-22T09:26:17.555Z,-2.7
2017-01-22T09:27:26.590Z,-2.69
2017-01-22T09:28:35.278Z,-2.69
2017-01-22T09:29:43.965Z,-2.62
2017-01-22T09:30:52.651Z,-2.54
2017-01-22T09:32:01.339Z,-2.5
2017-01-22T09:33:10.080Z,-2.45
2017-01-22T09:34:18.769Z,-2.42
2017-01-22T09:35:27.454Z,-2.45
2017-01-22T09:36:36.141Z,-2.34
2017-01-22T09:37:44.831Z,-2.33
2017-01-22T09:38:53.563Z,-2.29
2017-01-22T09:40:02.252Z,-2.29
2017-01-22T09:41:10.935Z,-2.36
2017-01-22T09:42:19.620Z,-2.28
2017-01-22T09:43:28.307Z,-2.28
2017-01-22T09:44:37.042Z,-2.33
2017-01-22T09:45:45.728Z,-2.37
2017-01-22T09:46:54.411Z,-2.34
2017-01-22T09:48:03.101Z,-2.4
2017-01-22T09:49:11.788Z,-2.33
2017-01-22T09:50:20.523Z,-2.45
2017-01-22T09:51:29.207Z,-2.44
2017-01-22T09:52:37.892Z,-2.37
2017-01-22T09:53:46.579Z,-2.4
2017-01-22T09:54:55.262Z,-2.39
2017-01-22T09:56:03.998Z,-2.44
2017-01-22T09:57:12.686Z,-2.36
2017-01-22T09:58:21.369Z,-2.26
2017-01-22T09:59:30.085Z,-2.32
2017-01-22T10:00:38.774Z,-2.26
2017-01-22T10:01:47.519Z,-2.32
2017-01-22T10:02:56.200Z,-2.39
2017-01-22T10:04:04.884Z,-2.51
2017-01-22T10:05:13.573Z,-2.5
2017-01-22T10:06:22.264Z,-2.5
2017-01-22T10:07:31.001Z,-2.51
2017-01-22T10:08:39.691Z,-2.5
2017-01-22T10:09:48.376Z,-2.52
2017-01-22T10:10:57.059Z,-2.51
2017-01-22T10:12:05.760Z,-2.54
2017-01-22T10:13:14.499Z,-2.57
2017-01-22T10:14:23.193Z,-2.62
2017-01-22T10:15:31.883Z,-2.54
2017-01-22T10:16:40.574Z,-2.52
2017-01-22T10:17:49.264Z,-2.47
2017-01-22T10:18:58.003Z,-2.45
2017-01-22T10:20:06.691Z,-2.37
2017-01-22T10:21:15.380Z,-2.39
2017-01-22T10:22:24.067Z,-2.23
2017-01-22T10:23:32.758Z,-2.17
2017-01-22T10:24:41.497Z,-2.13
2017-01-22T10:25:50.181Z,-2.08
2017-01-22T10:26:58.864Z,-2.05
2017-01-22T10:28:07.552Z,-2
2017-01-22T10:29:16.240Z,-2.1
2017-01-22T10:30:24.973Z,-1.99
2017-01-22T10:31:33.659Z,-2.1
2017-01-22T10:32:42.601Z,-2.11
2017-01-22T10:33:51.297Z,-2.11
2017-01-22T10:34:59.990Z,-2.05
2017-01-22T10:36:08.725Z,-2.14
2017-01-22T10:37:17.405Z,-2
2017-01-22T10:38:26.090Z,-1.94
2017-01-22T10:39:34.778Z,-2
2017-01-22T10:40:43.474Z,-1.97
2017-01-22T10:41:52.610Z,-1.93
2017-01-22T10:43:01.325Z,-2.05
2017-01-22T10:44:10.010Z,-2.15
2017-01-22T10:45:18.697Z,-2.22
2017-01-22T10:46:27.381Z,-2.2
2017-01-22T10:47:36.122Z,-2.25
2017-01-22T10:48:44.806Z,-2.33
2017-01-22T10:49:53.493Z,-2.37
2017-01-22T10:51:02.180Z,-2.47
2017-01-22T10:52:10.871Z,-2.44
2017-01-22T10:53:19.640Z,-2.37
2017-01-22T10:54:28.352Z,-2.34
2017-01-22T10:55:37.039Z,-2.29
2017-01-22T10:56:45.729Z,-2.48
2017-01-22T10:57:54.417Z,-2.5
2017-01-22T10:59:03.157Z,-2.65
2017-01-22T11:00:11.877Z,-2.69
2017-01-22T11:01:20.571Z,-2.81
2017-01-22T11:02:29.258Z,-2.91
2017-01-22T11:03:37.953Z,-2.89
2017-01-22T11:04:46.699Z,-2.89
2017-01-22T11:05:55.389Z,-2.94
2017-01-22T11:07:04.080Z,-2.87
2017-01-22T11:08:12.771Z,-2.87
2017-01-22T11:09:21.456Z,-2.99
2017-01-22T11:10:30.190Z,-2.96
2017-01-22T11:11:38.906Z,-2.99
2017-01-22T11:12:47.594Z,-2.98
2017-01-22T11:13:56.283Z,-3.09
2017-01-22T11:15:04.978Z,-2.94
2017-01-22T11:16:13.717Z,-3.01
2017-01-22T11:17:22.407Z,-2.98
2017-01-22T11:18:31.089Z,-3.01
2017-01-22T11:19:39.776Z,-3.07
2017-01-22T11:20:48.466Z,-3.07
2017-01-22T11:21:57.226Z,-3.04
2017-01-22T11:23:05.921Z,-3.01
2017-01-22T11:24:14.612Z,-3.04
2017-01-22T11:25:23.301Z,-3.09
2017-01-22T11:26:31.984Z,-3.04
2017-01-22T11:27:40.722Z,-3.05
2017-01-22T11:28:49.467Z,-3.08
2017-01-22T11:29:58.157Z,-3.08
2017-01-22T11:31:06.846Z,-2.98
2017-01-22T11:32:15.534Z,-2.99
2017-01-22T11:33:24.271Z,-3.12
2017-01-22T11:34:32.954Z,-3.01
2017-01-22T11:35:41.642Z,-3.08
2017-01-22T11:36:50.326Z,-3.12
2017-01-22T11:37:59.016Z,-3.08
2017-01-22T11:39:07.750Z,-3.11
2017-01-22T11:40:16.464Z,-3.11
2017-01-22T11:41:25.151Z,-3.05
2017-01-22T11:42:33.836Z,-3.15
2017-01-22T11:43:42.538Z,-3.12
2017-01-22T11:44:51.275Z,-3.15
2017-01-22T11:45:59.972Z,-3.17
2017-01-22T11:47:08.655Z,-3.09
2017-01-22T11:48:17.339Z,-3.15
2017-01-22T11:49:26.030Z,-3.11
2017-01-22T11:50:34.765Z,-3.12
2017-01-22T11:51:43.456Z,-3.08
2017-01-22T11:52:52.162Z,-3.19
2017-01-22T11:54:00.850Z,-3.08
2017-01-22T11:55:09.536Z,-3.15
2017-01-22T11:56:18.282Z,-3.19
2017-01-22T11:57:26.967Z,-3.2
2017-01-22T11:58:35.654Z,-3.19
2017-01-22T11:59:44.364Z,-3.22
2017-01-22T12:00:53.051Z,-3.2
2017-01-22T12:02:01.789Z,-3.14
2017-01-22T12:03:10.471Z,-3.09
2017-01-22T12:04:19.157Z,-3.08
2017-01-22T12:05:27.839Z,-3.09
2017-01-22T12:06:36.524Z,-3.08
2017-01-22T12:07:45.264Z,-3.07
2017-01-22T12:08:53.966Z,-3.11
2017-01-22T12:10:02.653Z,-3.08
2017-01-22T12:11:11.340Z,-3.05
2017-01-22T12:12:20.022Z,-2.98
2017-01-22T12:13:28.761Z,-2.96
2017-01-22T12:14:37.443Z,-2.9
2017-01-22T12:15:46.131Z,-2.91
2017-01-22T12:16:54.820Z,-2.9
2017-01-22T12:18:03.509Z,-2.91
2017-01-22T12:19:12.252Z,-2.72
2017-01-22T12:20:20.936Z,-2.66
2017-01-22T12:21:29.616Z,-2.65
2017-01-22T12:22:38.306Z,-2.55
2017-01-22T12:23:46.992Z,-2.52
2017-01-22T12:24:55.731Z,-2.62
2017-01-22T12:26:04.417Z,-2.62
2017-01-22T12:27:13.109Z,-2.55
2017-01-22T12:28:21.791Z,-2.65
2017-01-22T12:29:30.479Z,-2.66
2017-01-22T12:30:39.221Z,-2.62
2017-01-22T12:31:47.909Z,-2.54
2017-01-22T12:32:56.597Z,-2.52
2017-01-22T12:34:05.286Z,-2.48
2017-01-22T12:35:13.977Z,-2.4
2017-01-22T12:36:22.716Z,-2.48
2017-01-22T12:37:31.401Z,-2.44
2017-01-22T12:38:40.086Z,-2.61
2017-01-22T12:39:49.170Z,-2.55
2017-01-22T12:40:57.868Z,-2.57
2017-01-22T12:42:07.002Z,-2.52
2017-01-22T12:43:15.685Z,-2.51
2017-01-22T12:44:24.372Z,-2.52
2017-01-22T12:45:33.085Z,-2.48
2017-01-22T12:46:41.774Z,-2.51
2017-01-22T12:47:50.510Z,-2.51
2017-01-22T12:48:59.217Z,-2.44
2017-01-22T12:50:07.907Z,-2.44
2017-01-22T12:51:16.592Z,-2.4
2017-01-22T12:52:25.279Z,-2.47
2017-01-22T12:53:34.014Z,-2.47
2017-01-22T12:54:42.701Z,-2.55
2017-01-22T12:55:51.381Z,-2.52
2017-01-22T12:57:00.072Z,-2.52
2017-01-22T12:58:08.763Z,-2.54
2017-01-22T12:59:17.503Z,-2.47
2017-01-22T13:00:26.201Z,-2.42
2017-01-22T13:01:34.887Z,-2.44
2017-01-22T13:02:43.572Z,-2.42
2017-01-22T13:03:52.255Z,-2.42
2017-01-22T13:05:00.994Z,-2.39
2017-01-22T13:06:09.680Z,-2.45
2017-01-22T13:07:18.367Z,-2.34
2017-01-22T13:08:27.059Z,-2.29
2017-01-22T13:09:35.744Z,-2.34
2017-01-22T13:10:44.508Z,-2.47
2017-01-22T13:11:53.191Z,-2.44
2017-01-22T13:13:01.878Z,-2.5
2017-01-22T13:14:10.564Z,-2.52
2017-01-22T13:15:19.249Z,-2.54
2017-01-22T13:16:27.987Z,-2.57
2017-01-22T13:17:36.703Z,-2.65
2017-01-22T13:18:45.397Z,-2.72
2017-01-22T13:19:54.080Z,-2.63
2017-01-22T13:21:02.767Z,-2.52
2017-01-22T13:22:11.507Z,-2.55
2017-01-22T13:23:20.194Z,-2.51
2017-01-22T13:24:28.886Z,-2.4
2017-01-22T13:25:37.576Z,-2.44
2017-01-22T13:26:46.263Z,-2.42
2017-01-22T13:27:55.004Z,-2.36
2017-01-22T13:29:03.689Z,-2.39
2017-01-22T13:30:12.379Z,-2.4
2017-01-22T13:31:21.067Z,-2.5
2017-01-22T13:32:29.760Z,-2.39
2017-01-22T13:33:38.495Z,-2.45
2017-01-22T13:34:47.184Z,-2.36
2017-01-22T13:35:55.875Z,-2.45
2017-01-22T13:37:04.562Z,-2.33
2017-01-22T13:38:13.251Z,-2.4
2017-01-22T13:39:21.988Z,-2.37
2017-01-22T13:40:30.672Z,-2.25
2017-01-22T13:41:39.358Z,-2.23
2017-01-22T13:42:48.042Z,-2.26
2017-01-22T13:43:56.730Z,-2.2
2017-01-22T13:45:05.463Z,-2.25
2017-01-22T13:46:14.177Z,-2.14
2017-01-22T13:47:22.860Z,-2.11
2017-01-22T13:48:31.545Z,-2.08
2017-01-22T13:49:40.235Z,-2.14
2017-01-22T13:50:48.984Z,-2.04
2017-01-22T13:51:57.669Z,-2.04
2017-01-22T13:53:06.359Z,-2.02
2017-01-22T13:54:15.048Z,-2.14
2017-01-22T13:55:23.737Z,-2.18
2017-01-22T13:56:32.469Z,-2.18
2017-01-22T13:57:41.154Z,-2.18
2017-01-22T13:58:49.841Z,-2.18
2017-01-22T13:59:58.530Z,-2.37
2017-01-22T14:01:07.220Z,-2.34
2017-01-22T14:02:15.989Z,-2.39
2017-01-22T14:03:24.673Z,-2.52
2017-01-22T14:04:33.357Z,-2.5
2017-01-22T14:05:42.045Z,-2.52
2017-01-22T14:06:50.728Z,-2.65
2017-01-22T14:07:59.462Z,-2.62
2017-01-22T14:09:08.146Z,-2.7
2017-01-22T14:10:16.835Z,-2.75
2017-01-22T14:11:25.523Z,-2.91
2017-01-22T14:12:34.217Z,-2.78
2017-01-22T14:13:42.956Z,-2.84
2017-01-22T14:14:51.650Z,-2.86
2017-01-22T14:16:00.335Z,-2.86
2017-01-22T14:17:09.023Z,-2.91
2017-01-22T14:18:17.712Z,-2.9
2017-01-22T14:19:26.445Z,-2.89
2017-01-22T14:20:35.131Z,-2.89
2017-01-22T14:21:43.825Z,-2.81
2017-01-22T14:22:52.516Z,-2.7
2017-01-22T14:24:01.204Z,-2.66
2017-01-22T14:25:09.937Z,-2.61
2017-01-22T14:26:18.652Z,-2.62
2017-01-22T14:27:27.341Z,-2.58
2017-01-22T14:28:36.029Z,-2.55
2017-01-22T14:29:44.718Z,-2.57
2017-01-22T14:30:53.446Z,-2.58
2017-01-22T14:32:02.129Z,-2.54
2017-01-22T14:33:10.817Z,-2.55
2017-01-22T14:34:19.511Z,-2.55
2017-01-22T14:35:28.197Z,-2.55
2017-01-22T14:36:36.937Z,-2.61
2017-01-22T14:37:45.625Z,-2.68
2017-01-22T14:38:54.315Z,-2.63
2017-01-22T14:40:03.005Z,-2.62
2017-01-22T14:41:11.691Z,-2.65
2017-01-22T14:42:20.426Z,-2.73
2017-01-22T14:43:29.110Z,-2.7
2017-01-22T14:44:37.797Z,-2.75
2017-01-22T14:45:46.484Z,-2.63
2017-01-22T14:46:55.177Z,-2.62
2017-01-22T14:48:03.920Z,-2.57
2017-01-22T14:49:12.600Z,-2.54